Terminal Aerodrome Forecast
Issued by NWS

Current Version | Previous Version | Graphics & Text | Print | Product List | Glossary On
Versions: 1 2 3 4 5 6 7 8 9 10 11 12 13 14 15 16 17 18 19 20 21
000
FTUS41 KRLX 211500 AAA
TAFCKB
TAF AMD
KCKB 211507Z 2115/2212 00000KT P6SM BKN035
      TEMPO 2115/2119 BKN025
     FM211900 00000KT P6SM SCT035
     FM220000 00000KT P6SM SCT250=

USA.gov is the U.S. government's official web portal to all federal, state and local government web resources and services.